Home   Weather   USA   Houston   Past weeks
Flag for USA

Past Weather in Houston, Texas, USA — September 2020

Currently: 83 °F. Passing clouds. (Weather station: Houston Hobby Airport, USA). See more current weather

September 2020 Weather in Houston — Graph

°F

High & Low Weather Summary for September 2020

 TemperatureHumidityPressure
High97 °F (Sep 2, 2:53 pm)94% (Sep 21, 3:41 pm)30.21 "Hg (Sep 21, 3:41 pm)
Low59 °F (Sep 29, 6:53 am)19% (Sep 29, 2:53 pm)29.74 "Hg (Sep 27, 5:53 pm)
Average81 °F70%29.95 "Hg
* Reported Sep 1 12:53 am — Sep 30 11:53 pm, Houston. Weather by CustomWeather, © 2021

Note: Actual official high and low records may vary slightly from our data, if they occured in-between our weather recording intervals... More about our weather records

Houston Weather History for September 1, 2020

Scroll right to see more
 ConditionsComfort  
Time TempWeatherWind HumidityBarometerVisibility
12:53 am
Tue, Sep 1
85 °FPassing clouds.8 mph86%29.88 "Hg10 mi
1:53 am85 °FPassing clouds.9 mph86%29.86 "Hg10 mi
2:53 am85 °FPassing clouds.10 mph86%29.84 "Hg10 mi
3:53 am84 °FPassing clouds.10 mph85%29.82 "Hg10 mi
4:53 am85 °FPassing clouds.10 mph83%29.83 "Hg10 mi
5:35 am85 °FPassing clouds.12 mph80%29.82 "Hg10 mi
5:53 am85 °FPassing clouds.12 mph80%29.84 "Hg10 mi
6:53 am84 °FPassing clouds.9 mph83%29.85 "Hg10 mi
7:53 am85 °FScattered clouds.12 mph80%29.86 "Hg10 mi
8:53 am89 °FPassing clouds.16 mph70%29.86 "Hg10 mi
9:53 am90 °FBroken clouds.20 mph63%29.88 "Hg10 mi
10:53 am91 °FBroken clouds.15 mph60%29.88 "Hg10 mi
11:53 am92 °FBroken clouds.15 mph58%29.89 "Hg10 mi
12:53 pm95 °FBroken clouds.21 mph51%29.88 "Hg10 mi
1:53 pm96 °FBroken clouds.16 mph47%29.87 "Hg10 mi
2:53 pm96 °FBroken clouds.21 mph49%29.86 "Hg10 mi
3:53 pm95 °FScattered clouds.18 mph49%29.84 "Hg10 mi
4:53 pm95 °FScattered clouds.17 mph49%29.82 "Hg10 mi
5:53 pm93 °FScattered clouds.16 mph52%29.81 "Hg10 mi
6:53 pm91 °FScattered clouds.20 mph61%29.80 "Hg9 mi
7:53 pm89 °FPassing clouds.14 mph68%29.81 "Hg8 mi
8:53 pm87 °FPassing clouds.13 mph75%29.84 "Hg9 mi
9:53 pm87 °FPassing clouds.9 mph75%29.85 "Hg9 mi
10:53 pm86 °FPassing clouds.13 mph77%29.86 "Hg9 mi
11:53 pm86 °FPassing clouds.9 mph77%29.87 "Hg10 mi
Weather by CustomWeather, © 2021

See weather overview